sensor_id;sensor_type;location;lat;lon;timestamp;pressure;altitude;pressure_sealevel;temperature;humidity
44531;BME280;30240;47.418;0.700;2023-05-09T00:01:48;100699.05395507812;;;14.77;84.17
44531;BME280;30240;47.418;0.700;2023-05-09T00:04:13;100692.99926757812;;;14.74;84.31
44531;BME280;30240;47.418;0.700;2023-05-09T00:06:38;100686.60888671875;;;14.68;84.31
44531;BME280;30240;47.418;0.700;2023-05-09T00:09:03;100686.60888671875;;;14.68;84.31
44531;BME280;30240;47.418;0.700;2023-05-09T00:11:28;100682.2021484375;;;14.7;84.44
44531;BME280;30240;47.418;0.700;2023-05-09T00:13:53;100679.43725585938;;;14.68;84.36
44531;BME280;30240;47.418;0.700;2023-05-09T00:16:18;100672.314453125;;;14.68;84.63
44531;BME280;30240;47.418;0.700;2023-05-09T00:18:43;100665.32592773438;;;14.63;84.64
44531;BME280;30240;47.418;0.700;2023-05-09T00:21:09;100665.32592773438;;;14.63;84.64
44531;BME280;30240;47.418;0.700;2023-05-09T00:23:34;100659.55200195312;;;14.57;84.8
44531;BME280;30240;47.418;0.700;2023-05-09T00:25:59;100667.85888671875;;;14.51;84.8
44531;BME280;30240;47.418;0.700;2023-05-09T00:28:23;100660.10131835938;;;14.5;84.84
44531;BME280;30240;47.418;0.700;2023-05-09T00:30:48;100656.50634765625;;;14.49;84.92
44531;BME280;30240;47.418;0.700;2023-05-09T00:33:13;100656.50634765625;;;14.49;84.92
44531;BME280;30240;47.418;0.700;2023-05-09T00:35:39;100654.21752929688;;;14.49;85.0
44531;BME280;30240;47.418;0.700;2023-05-09T00:38:03;100644.76318359375;;;14.44;85.15
44531;BME280;30240;47.418;0.700;2023-05-09T00:40:28;100633.25805664062;;;14.4;84.95
44531;BME280;30240;47.418;0.700;2023-05-09T00:42:53;100635.498046875;;;14.4;85.01
44531;BME280;30240;47.418;0.700;2023-05-09T00:45:18;100635.498046875;;;14.4;85.01
44531;BME280;30240;47.418;0.700;2023-05-09T00:47:43;100622.96752929688;;;14.44;84.86
44531;BME280;30240;47.418;0.700;2023-05-09T00:50:09;100618.1396484375;;;14.43;84.57
44531;BME280;30240;47.418;0.700;2023-05-09T00:52:34;100623.35205078125;;;14.39;84.63
44531;BME280;30240;47.418;0.700;2023-05-09T00:54:59;100624.37744140625;;;14.39;84.57
44531;BME280;30240;47.418;0.700;2023-05-09T00:57:24;100624.37744140625;;;14.39;84.57
44531;BME280;30240;47.418;0.700;2023-05-09T00:59:49;100617.80395507812;;;14.3;84.76
44531;BME280;30240;47.418;0.700;2023-05-09T01:02:14;100619.98291015625;;;14.33;84.71
44531;BME280;30240;47.418;0.700;2023-05-09T01:04:39;100612.8662109375;;;14.26;84.78
44531;BME280;30240;47.418;0.700;2023-05-09T01:07:08;100615.85693359375;;;14.3;84.69
44531;BME280;30240;47.418;0.700;2023-05-09T01:09:33;100615.85693359375;;;14.3;84.69
44531;BME280;30240;47.418;0.700;2023-05-09T01:09:37;100615.85693359375;;;14.3;84.69
44531;BME280;30240;47.418;0.700;2023-05-09T01:11:58;100617.15698242188;;;14.33;84.66
44531;BME280;30240;47.418;0.700;2023-05-09T01:14:32;100614.78881835938;;;14.21;84.95
44531;BME280;30240;47.418;0.700;2023-05-09T01:14:36;100614.78881835938;;;14.21;84.95
44531;BME280;30240;47.418;0.700;2023-05-09T01:16:48;100603.96728515625;;;14.18;85.34
44531;BME280;30240;47.418;0.700;2023-05-09T01:16:52;100603.96728515625;;;14.18;85.34
44531;BME280;30240;47.418;0.700;2023-05-09T01:19:53;100609.6435546875;;;14.12;85.78
44531;BME280;30240;47.418;0.700;2023-05-09T01:21:34;100600.78125;;;14.11;85.73
44531;BME280;30240;47.418;0.700;2023-05-09T01:24:49;100600.78125;;;14.11;85.73
44531;BME280;30240;47.418;0.700;2023-05-09T01:25:00;100600.78125;;;14.11;85.73
44531;BME280;30240;47.418;0.700;2023-05-09T01:26:25;100588.9404296875;;;14.04;85.81
44531;BME280;30240;47.418;0.700;2023-05-09T01:26:34;100588.9404296875;;;14.04;85.81
44531;BME280;30240;47.418;0.700;2023-05-09T01:29:18;100587.22534179688;;;14.0;85.82
44531;BME280;30240;47.418;0.700;2023-05-09T01:29:28;100587.22534179688;;;14.0;85.82
44531;BME280;30240;47.418;0.700;2023-05-09T01:31:14;100579.26635742188;;;14.0;86.13
44531;BME280;30240;47.418;0.700;2023-05-09T01:33:41;100579.79736328125;;;13.94;86.15
44531;BME280;30240;47.418;0.700;2023-05-09T01:36:07;100579.79736328125;;;13.94;86.15
44531;BME280;30240;47.418;0.700;2023-05-09T01:38:30;100574.658203125;;;13.91;86.33
44531;BME280;30240;47.418;0.700;2023-05-09T01:40:54;100573.22387695312;;;13.9;86.35
44531;BME280;30240;47.418;0.700;2023-05-09T01:43:20;100563.47045898438;;;13.84;86.53
44531;BME280;30240;47.418;0.700;2023-05-09T01:45:45;100563.330078125;;;13.84;86.7
44531;BME280;30240;47.418;0.700;2023-05-09T01:48:09;100563.330078125;;;13.84;86.7
44531;BME280;30240;47.418;0.700;2023-05-09T01:50:34;100557.11059570312;;;13.81;86.75
44531;BME280;30240;47.418;0.700;2023-05-09T01:53:00;100559.8388671875;;;13.77;87.06
44531;BME280;30240;47.418;0.700;2023-05-09T01:55:25;100555.94482421875;;;13.78;87.19
44531;BME280;30240;47.418;0.700;2023-05-09T01:57:49;100551.15356445312;;;13.8;87.57
44531;BME280;30240;47.418;0.700;2023-05-09T02:00:14;100551.15356445312;;;13.8;87.57
44531;BME280;30240;47.418;0.700;2023-05-09T02:02:39;100547.900390625;;;13.83;87.47
44531;BME280;30240;47.418;0.700;2023-05-09T02:05:05;100558.43505859375;;;13.76;87.37
44531;BME280;30240;47.418;0.700;2023-05-09T02:07:29;100551.58081054688;;;13.74;87.48
44531;BME280;30240;47.418;0.700;2023-05-09T02:09:54;100543.89038085938;;;13.74;87.52
44531;BME280;30240;47.418;0.700;2023-05-09T02:12:19;100543.89038085938;;;13.74;87.52
44531;BME280;30240;47.418;0.700;2023-05-09T02:14:44;100541.27197265625;;;13.77;88.01
44531;BME280;30240;47.418;0.700;2023-05-09T02:17:09;100540.81420898438;;;13.71;87.78
44531;BME280;30240;47.418;0.700;2023-05-09T02:19:34;100542.02270507812;;;13.74;87.9
44531;BME280;30240;47.418;0.700;2023-05-09T02:21:59;100541.29638671875;;;13.66;88.31
44531;BME280;30240;47.418;0.700;2023-05-09T02:24:24;100541.29638671875;;;13.66;88.31
44531;BME280;30240;47.418;0.700;2023-05-09T02:26:49;100539.990234375;;;13.65;88.35
44531;BME280;30240;47.418;0.700;2023-05-09T02:29:15;100543.0419921875;;;13.65;88.51
44531;BME280;30240;47.418;0.700;2023-05-09T02:31:39;100547.30224609375;;;13.63;88.66
44531;BME280;30240;47.418;0.700;2023-05-09T02:34:04;100547.85766601562;;;13.6;88.8
44531;BME280;30240;47.418;0.700;2023-05-09T02:36:29;100547.85766601562;;;13.6;88.8
44531;BME280;30240;47.418;0.700;2023-05-09T02:38:54;100542.82836914062;;;13.52;88.74
44531;BME280;30240;47.418;0.700;2023-05-09T02:41:19;100537.78076171875;;;13.56;88.71
44531;BME280;30240;47.418;0.700;2023-05-09T02:43:44;100530.224609375;;;13.6;88.72
44531;BME280;30240;47.418;0.700;2023-05-09T02:46:09;100523.69384765625;;;13.6;88.73
44531;BME280;30240;47.418;0.700;2023-05-09T02:48:34;100525.46997070312;;;13.53;88.83
44531;BME280;30240;47.418;0.700;2023-05-09T02:50:59;100525.46997070312;;;13.53;88.83
44531;BME280;30240;47.418;0.700;2023-05-09T02:53:24;100530.82885742188;;;13.52;88.8
44531;BME280;30240;47.418;0.700;2023-05-09T02:55:49;100523.1689453125;;;13.53;88.94
44531;BME280;30240;47.418;0.700;2023-05-09T02:58:14;100516.46118164062;;;13.49;88.82
44531;BME280;30240;47.418;0.700;2023-05-09T03:00:39;100514.31274414062;;;13.52;88.95
44531;BME280;30240;47.418;0.700;2023-05-09T03:03:04;100514.31274414062;;;13.52;88.95
44531;BME280;30240;47.418;0.700;2023-05-09T03:05:29;100507.72094726562;;;13.48;88.89
44531;BME280;30240;47.418;0.700;2023-05-09T03:07:54;100511.376953125;;;13.49;89.01
44531;BME280;30240;47.418;0.700;2023-05-09T03:10:19;100509.8876953125;;;13.48;89.08
44531;BME280;30240;47.418;0.700;2023-05-09T03:12:44;100500.54931640625;;;13.46;89.17
44531;BME280;30240;47.418;0.700;2023-05-09T03:15:09;100500.54931640625;;;13.46;89.17
44531;BME280;30240;47.418;0.700;2023-05-09T03:17:34;100496.68579101562;;;13.49;89.5
44531;BME280;30240;47.418;0.700;2023-05-09T03:19:58;100494.28100585938;;;13.46;89.67
44531;BME280;30240;47.418;0.700;2023-05-09T03:22:24;100487.02392578125;;;13.43;89.83
44531;BME280;30240;47.418;0.700;2023-05-09T03:24:49;100481.39038085938;;;13.38;89.92
44531;BME280;30240;47.418;0.700;2023-05-09T03:27:14;100481.39038085938;;;13.38;89.92
44531;BME280;30240;47.418;0.700;2023-05-09T03:29:39;100472.216796875;;;13.32;90.13
44531;BME280;30240;47.418;0.700;2023-05-09T03:32:04;100473.388671875;;;13.36;90.18
44531;BME280;30240;47.418;0.700;2023-05-09T03:34:28;100459.28344726562;;;13.32;90.4
44531;BME280;30240;47.418;0.700;2023-05-09T03:36:54;100460.06469726562;;;13.26;90.47
44531;BME280;30240;47.418;0.700;2023-05-09T03:39:19;100460.06469726562;;;13.26;90.47
44531;BME280;30240;47.418;0.700;2023-05-09T03:41:44;100456.982421875;;;13.29;90.62
44531;BME280;30240;47.418;0.700;2023-05-09T03:44:09;100461.41967773438;;;13.28;90.71
44531;BME280;30240;47.418;0.700;2023-05-09T03:46:34;100443.4814453125;;;13.26;90.88
44531;BME280;30240;47.418;0.700;2023-05-09T03:48:58;100445.00122070312;;;13.15;90.65
44531;BME280;30240;47.418;0.700;2023-05-09T03:51:24;100445.00122070312;;;13.15;90.65
44531;BME280;30240;47.418;0.700;2023-05-09T03:53:48;100446.46606445312;;;13.12;90.36
44531;BME280;30240;47.418;0.700;2023-05-09T03:56:14;100440.07568359375;;;12.93;89.04
44531;BME280;30240;47.418;0.700;2023-05-09T03:58:39;100438.56201171875;;;12.89;87.71
44531;BME280;30240;47.418;0.700;2023-05-09T04:01:04;100438.61083984375;;;12.99;87.5
44531;BME280;30240;47.418;0.700;2023-05-09T04:03:28;100438.61083984375;;;12.99;87.5
44531;BME280;30240;47.418;0.700;2023-05-09T04:05:54;100435.40649414062;;;13.01;87.83
44531;BME280;30240;47.418;0.700;2023-05-09T04:08:19;100431.67114257812;;;13.01;88.0
44531;BME280;30240;47.418;0.700;2023-05-09T04:10:44;100426.59912109375;;;12.97;88.22
44531;BME280;30240;47.418;0.700;2023-05-09T04:13:09;100414.87426757812;;;12.8;87.08
44531;BME280;30240;47.418;0.700;2023-05-09T04:15:33;100414.87426757812;;;12.8;87.08
44531;BME280;30240;47.418;0.700;2023-05-09T04:17:59;100413.28125;;;12.84;86.79
44531;BME280;30240;47.418;0.700;2023-05-09T04:20:24;100407.72705078125;;;12.73;86.3
44531;BME280;30240;47.418;0.700;2023-05-09T04:22:48;100404.79736328125;;;12.7;86.03
44531;BME280;30240;47.418;0.700;2023-05-09T04:25:14;100404.54711914062;;;12.77;86.41
44531;BME280;30240;47.418;0.700;2023-05-09T04:27:39;100403.40576171875;;;12.68;86.45
44531;BME280;30240;47.418;0.700;2023-05-09T04:30:04;100403.40576171875;;;12.68;86.45
44531;BME280;30240;47.418;0.700;2023-05-09T04:32:28;100399.90844726562;;;12.73;86.92
44531;BME280;30240;47.418;0.700;2023-05-09T04:34:54;100390.83862304688;;;12.83;87.78
44531;BME280;30240;47.418;0.700;2023-05-09T04:37:18;100387.83569335938;;;12.79;88.62
44531;BME280;30240;47.418;0.700;2023-05-09T04:39:43;100395.00732421875;;;12.82;89.01
44531;BME280;30240;47.418;0.700;2023-05-09T04:42:08;100395.00732421875;;;12.82;89.01
44531;BME280;30240;47.418;0.700;2023-05-09T04:44:33;100394.54956054688;;;12.82;88.95
44531;BME280;30240;47.418;0.700;2023-05-09T04:46:58;100382.53173828125;;;12.83;89.28
44531;BME280;30240;47.418;0.700;2023-05-09T04:49:23;100380.5908203125;;;12.82;89.07
44531;BME280;30240;47.418;0.700;2023-05-09T04:51:50;100383.544921875;;;12.83;89.3
44531;BME280;30240;47.418;0.700;2023-05-09T04:54:13;100383.544921875;;;12.83;89.3
44531;BME280;30240;47.418;0.700;2023-05-09T04:56:39;100383.43505859375;;;12.75;89.45
44531;BME280;30240;47.418;0.700;2023-05-09T04:59:04;100377.22778320312;;;12.69;89.52
44531;BME280;30240;47.418;0.700;2023-05-09T05:01:28;100370.73364257812;;;12.75;89.83
44531;BME280;30240;47.418;0.700;2023-05-09T05:03:54;100372.0458984375;;;12.73;89.85
44531;BME280;30240;47.418;0.700;2023-05-09T05:06:18;100372.0458984375;;;12.73;89.85
44531;BME280;30240;47.418;0.700;2023-05-09T05:08:44;100364.7216796875;;;12.63;90.12
44531;BME280;30240;47.418;0.700;2023-05-09T05:11:09;100361.46850585938;;;12.7;90.35
44531;BME280;30240;47.418;0.700;2023-05-09T05:13:33;100366.65649414062;;;12.56;90.5
44531;BME280;30240;47.418;0.700;2023-05-09T05:15:58;100368.43872070312;;;12.65;90.52
44531;BME280;30240;47.418;0.700;2023-05-09T05:18:23;100368.43872070312;;;12.65;90.52
44531;BME280;30240;47.418;0.700;2023-05-09T05:20:49;100370.58715820312;;;12.69;90.66
44531;BME280;30240;47.418;0.700;2023-05-09T05:23:14;100363.55590820312;;;12.6;90.66
44531;BME280;30240;47.418;0.700;2023-05-09T05:25:39;100358.22143554688;;;12.6;90.97
44531;BME280;30240;47.418;0.700;2023-05-09T05:28:04;100356.67114257812;;;12.52;91.18
44531;BME280;30240;47.418;0.700;2023-05-09T05:30:29;100356.67114257812;;;12.52;91.18
44531;BME280;30240;47.418;0.700;2023-05-09T05:32:54;100352.86865234375;;;12.53;91.51
44531;BME280;30240;47.418;0.700;2023-05-09T05:35:19;100351.30615234375;;;12.42;91.54
44531;BME280;30240;47.418;0.700;2023-05-09T05:37:44;100347.76611328125;;;12.48;91.88
44531;BME280;30240;47.418;0.700;2023-05-09T05:40:09;100344.35424804688;;;12.49;92.14
44531;BME280;30240;47.418;0.700;2023-05-09T05:42:34;100344.35424804688;;;12.49;92.14
44531;BME280;30240;47.418;0.700;2023-05-09T05:44:59;100339.86206054688;;;12.49;92.3
44531;BME280;30240;47.418;0.700;2023-05-09T05:47:23;100337.39624023438;;;12.55;92.48
44531;BME280;30240;47.418;0.700;2023-05-09T05:49:48;100340.9912109375;;;12.56;92.6
44531;BME280;30240;47.418;0.700;2023-05-09T05:52:14;100330.76782226562;;;12.63;92.77
44531;BME280;30240;47.418;0.700;2023-05-09T05:54:39;100328.7353515625;;;12.68;92.84
44531;BME280;30240;47.418;0.700;2023-05-09T05:57:04;100328.7353515625;;;12.68;92.84
44531;BME280;30240;47.418;0.700;2023-05-09T05:59:29;100326.7822265625;;;12.75;92.9
44531;BME280;30240;47.418;0.700;2023-05-09T06:01:53;100325.9033203125;;;12.84;93.0
44531;BME280;30240;47.418;0.700;2023-05-09T06:04:19;100324.74975585938;;;12.92;93.03
44531;BME280;30240;47.418;0.700;2023-05-09T06:06:44;100321.18530273438;;;12.92;93.03
44531;BME280;30240;47.418;0.700;2023-05-09T06:09:08;100321.18530273438;;;12.92;93.03
44531;BME280;30240;47.418;0.700;2023-05-09T06:11:34;100322.32666015625;;;12.87;93.02
44531;BME280;30240;47.418;0.700;2023-05-09T06:13:59;100322.607421875;;;12.96;93.09
44531;BME280;30240;47.418;0.700;2023-05-09T06:16:24;100319.89135742188;;;12.99;93.11
44531;BME280;30240;47.418;0.700;2023-05-09T06:18:49;100315.35034179688;;;12.92;93.19
44531;BME280;30240;47.418;0.700;2023-05-09T06:21:13;100315.35034179688;;;12.92;93.19
44531;BME280;30240;47.418;0.700;2023-05-09T06:23:38;100308.642578125;;;12.93;93.2
44531;BME280;30240;47.418;0.700;2023-05-09T06:26:04;100312.5;;;12.87;93.17
44531;BME280;30240;47.418;0.700;2023-05-09T06:28:29;100302.74047851562;;;12.9;93.18
44531;BME280;30240;47.418;0.700;2023-05-09T06:30:54;100302.20336914062;;;13.06;93.31
44531;BME280;30240;47.418;0.700;2023-05-09T06:33:19;100302.20336914062;;;13.06;93.31
44531;BME280;30240;47.418;0.700;2023-05-09T06:35:43;100301.0986328125;;;13.1;93.32
44531;BME280;30240;47.418;0.700;2023-05-09T06:38:08;100292.2119140625;;;13.01;93.3
44531;BME280;30240;47.418;0.700;2023-05-09T06:40:34;100288.4521484375;;;12.97;93.2
44531;BME280;30240;47.418;0.700;2023-05-09T06:42:58;100287.46948242188;;;13.03;93.26
44531;BME280;30240;47.418;0.700;2023-05-09T06:45:23;100287.46948242188;;;13.03;93.26
44531;BME280;30240;47.418;0.700;2023-05-09T06:47:49;100282.17163085938;;;13.01;93.24
44531;BME280;30240;47.418;0.700;2023-05-09T06:50:14;100281.06079101562;;;12.99;93.22
44531;BME280;30240;47.418;0.700;2023-05-09T06:52:38;100278.04565429688;;;13.06;93.3
44531;BME280;30240;47.418;0.700;2023-05-09T06:55:04;100273.6083984375;;;12.97;93.31
44531;BME280;30240;47.418;0.700;2023-05-09T06:57:29;100273.6083984375;;;12.97;93.31
44531;BME280;30240;47.418;0.700;2023-05-09T06:59:53;100270.23315429688;;;12.97;93.37
44531;BME280;30240;47.418;0.700;2023-05-09T07:02:18;100266.59545898438;;;13.04;93.38
44531;BME280;30240;47.418;0.700;2023-05-09T07:04:43;100262.6708984375;;;13.14;93.42
44531;BME280;30240;47.418;0.700;2023-05-09T07:07:09;100265.234375;;;13.31;93.46
44531;BME280;30240;47.418;0.700;2023-05-09T07:09:33;100265.234375;;;13.31;93.46
44531;BME280;30240;47.418;0.700;2023-05-09T07:11:59;100258.544921875;;;13.22;93.41
44531;BME280;30240;47.418;0.700;2023-05-09T07:14:24;100258.0322265625;;;13.18;93.38
44531;BME280;30240;47.418;0.700;2023-05-09T07:16:48;100251.42211914062;;;13.06;93.39
44531;BME280;30240;47.418;0.700;2023-05-09T07:19:13;100242.7001953125;;;13.06;93.26
44531;BME280;30240;47.418;0.700;2023-05-09T07:21:38;100236.90795898438;;;13.1;93.3
44531;BME280;30240;47.418;0.700;2023-05-09T07:24:04;100236.90795898438;;;13.1;93.3
44531;BME280;30240;47.418;0.700;2023-05-09T07:26:29;100234.08813476562;;;13.11;96.28
44531;BME280;30240;47.418;0.700;2023-05-09T07:28:53;100236.13891601562;;;13.26;96.37
44531;BME280;30240;47.418;0.700;2023-05-09T07:31:18;100231.70166015625;;;13.08;96.4
44531;BME280;30240;47.418;0.700;2023-05-09T07:33:43;100229.06494140625;;;13.14;96.43
44531;BME280;30240;47.418;0.700;2023-05-09T07:36:09;100229.06494140625;;;13.14;96.43
44531;BME280;30240;47.418;0.700;2023-05-09T07:38:34;100225.5859375;;;13.25;96.42
44531;BME280;30240;47.418;0.700;2023-05-09T07:40:58;100217.4560546875;;;13.1;96.41
44531;BME280;30240;47.418;0.700;2023-05-09T07:43:24;100218.2373046875;;;13.06;96.38
44531;BME280;30240;47.418;0.700;2023-05-09T07:45:48;100214.81323242188;;;13.21;95.31
44531;BME280;30240;47.418;0.700;2023-05-09T07:48:13;100214.81323242188;;;13.21;95.31
44531;BME280;30240;47.418;0.700;2023-05-09T07:50:39;100213.17138671875;;;13.28;94.26
44531;BME280;30240;47.418;0.700;2023-05-09T07:53:03;100211.767578125;;;13.12;94.13
44531;BME280;30240;47.418;0.700;2023-05-09T07:55:28;100200.68969726562;;;13.11;94.15
44531;BME280;30240;47.418;0.700;2023-05-09T07:57:54;100203.48510742188;;;13.12;94.1
44531;BME280;30240;47.418;0.700;2023-05-09T08:00:19;100203.48510742188;;;13.12;94.1
44531;BME280;30240;47.418;0.700;2023-05-09T08:02:43;100197.94311523438;;;13.08;93.95
44531;BME280;30240;47.418;0.700;2023-05-09T08:05:09;100197.03369140625;;;13.19;93.93
44531;BME280;30240;47.418;0.700;2023-05-09T08:07:33;100192.79174804688;;;13.29;93.9
44531;BME280;30240;47.418;0.700;2023-05-09T08:09:58;100200.70190429688;;;13.15;93.81
44531;BME280;30240;47.418;0.700;2023-05-09T08:12:24;100200.70190429688;;;13.15;93.81
44531;BME280;30240;47.418;0.700;2023-05-09T08:14:48;100194.6044921875;;;13.18;93.87
44531;BME280;30240;47.418;0.700;2023-05-09T08:17:13;100198.52905273438;;;13.15;93.95
44531;BME280;30240;47.418;0.700;2023-05-09T08:19:38;100198.96240234375;;;13.21;93.91
44531;BME280;30240;47.418;0.700;2023-05-09T08:22:03;100196.59423828125;;;13.24;93.94
44531;BME280;30240;47.418;0.700;2023-05-09T08:24:28;100196.59423828125;;;13.24;93.94
44531;BME280;30240;47.418;0.700;2023-05-09T08:26:53;100196.630859375;;;13.18;93.83
44531;BME280;30240;47.418;0.700;2023-05-09T08:29:19;100193.00537109375;;;13.1;93.8
44531;BME280;30240;47.418;0.700;2023-05-09T08:31:43;100195.40405273438;;;13.22;93.88
44531;BME280;30240;47.418;0.700;2023-05-09T08:34:08;100186.02294921875;;;13.34;93.81
44531;BME280;30240;47.418;0.700;2023-05-09T08:36:34;100186.02294921875;;;13.34;93.81
44531;BME280;30240;47.418;0.700;2023-05-09T08:38:59;100188.69018554688;;;13.25;93.78
44531;BME280;30240;47.418;0.700;2023-05-09T08:41:25;100186.32202148438;;;13.24;93.64
44531;BME280;30240;47.418;0.700;2023-05-09T08:43:49;100183.11157226562;;;13.25;93.71
44531;BME280;30240;47.418;0.700;2023-05-09T08:46:15;100184.1552734375;;;13.26;93.69
44531;BME280;30240;47.418;0.700;2023-05-09T08:48:40;100184.1552734375;;;13.26;93.69
44531;BME280;30240;47.418;0.700;2023-05-09T08:51:04;100185.35766601562;;;13.31;93.66
44531;BME280;30240;47.418;0.700;2023-05-09T08:53:28;100178.43017578125;;;13.29;93.46
44531;BME280;30240;47.418;0.700;2023-05-09T08:55:54;100174.89013671875;;;13.36;93.52
44531;BME280;30240;47.418;0.700;2023-05-09T08:58:19;100171.76513671875;;;13.48;93.34
44531;BME280;30240;47.418;0.700;2023-05-09T09:00:44;100167.9931640625;;;13.45;93.23
44531;BME280;30240;47.418;0.700;2023-05-09T09:03:08;100167.9931640625;;;13.45;93.23
44531;BME280;30240;47.418;0.700;2023-05-09T09:05:35;100161.04736328125;;;13.55;93.12
44531;BME280;30240;47.418;0.700;2023-05-09T09:07:59;100163.8671875;;;13.62;93.08
44531;BME280;30240;47.418;0.700;2023-05-09T09:10:25;100161.38305664062;;;13.59;92.91
44531;BME280;30240;47.418;0.700;2023-05-09T09:12:50;100168.408203125;;;13.93;93.11
44531;BME280;30240;47.418;0.700;2023-05-09T09:15:15;100168.408203125;;;13.93;93.11
44531;BME280;30240;47.418;0.700;2023-05-09T09:17:41;100165.25268554688;;;13.6;92.74
44531;BME280;30240;47.418;0.700;2023-05-09T09:20:05;100156.982421875;;;13.62;93.04
44531;BME280;30240;47.418;0.700;2023-05-09T09:22:31;100161.16943359375;;;13.81;92.97
44531;BME280;30240;47.418;0.700;2023-05-09T09:24:53;100169.482421875;;;13.8;93.05
44531;BME280;30240;47.418;0.700;2023-05-09T09:27:18;100169.482421875;;;13.8;93.05
44531;BME280;30240;47.418;0.700;2023-05-09T09:29:44;100167.32788085938;;;13.78;93.09
44531;BME280;30240;47.418;0.700;2023-05-09T09:32:09;100173.13842773438;;;13.7;92.93
44531;BME280;30240;47.418;0.700;2023-05-09T09:34:33;100172.12524414062;;;13.84;92.97
44531;BME280;30240;47.418;0.700;2023-05-09T09:36:58;100177.45361328125;;;13.78;92.76
44531;BME280;30240;47.418;0.700;2023-05-09T09:39:24;100177.45361328125;;;13.78;92.76
44531;BME280;30240;47.418;0.700;2023-05-09T09:41:49;100168.21899414062;;;13.8;92.75
44531;BME280;30240;47.418;0.700;2023-05-09T09:44:15;100165.53955078125;;;13.87;92.75
44531;BME280;30240;47.418;0.700;2023-05-09T09:46:40;100170.0439453125;;;14.07;92.66
44531;BME280;30240;47.418;0.700;2023-05-09T09:49:03;100169.140625;;;14.12;92.62
44531;BME280;30240;47.418;0.700;2023-05-09T09:51:28;100169.140625;;;14.12;92.62
44531;BME280;30240;47.418;0.700;2023-05-09T09:53:54;100164.81323242188;;;14.24;92.56
44531;BME280;30240;47.418;0.700;2023-05-09T09:56:19;100155.71899414062;;;14.01;92.65
44531;BME280;30240;47.418;0.700;2023-05-09T09:58:44;100160.17456054688;;;14.22;92.75
44531;BME280;30240;47.418;0.700;2023-05-09T10:01:10;100154.38842773438;;;14.08;92.53
44531;BME280;30240;47.418;0.700;2023-05-09T10:03:34;100154.38842773438;;;14.08;92.53
44531;BME280;30240;47.418;0.700;2023-05-09T10:06:00;100157.72094726562;;;14.18;92.51
44531;BME280;30240;47.418;0.700;2023-05-09T10:08:24;100149.8779296875;;;14.12;92.58
44531;BME280;30240;47.418;0.700;2023-05-09T10:10:48;100156.3720703125;;;14.07;92.52
44531;BME280;30240;47.418;0.700;2023-05-09T10:13:14;100152.42309570312;;;13.98;92.82
44531;BME280;30240;47.418;0.700;2023-05-09T10:15:40;100152.42309570312;;;13.98;92.82
44531;BME280;30240;47.418;0.700;2023-05-09T10:18:04;100154.07104492188;;;14.09;92.84
44531;BME280;30240;47.418;0.700;2023-05-09T10:20:30;100160.74829101562;;;14.32;92.73
44531;BME280;30240;47.418;0.700;2023-05-09T10:22:56;100154.86450195312;;;14.37;92.47
44531;BME280;30240;47.418;0.700;2023-05-09T10:25:20;100141.24755859375;;;14.43;92.66
44531;BME280;30240;47.418;0.700;2023-05-09T10:27:45;100155.13305664062;;;14.67;92.33
44531;BME280;30240;47.418;0.700;2023-05-09T10:30:14;100155.13305664062;;;14.67;92.33
44531;BME280;30240;47.418;0.700;2023-05-09T10:32:39;100159.21630859375;;;14.43;92.44
44531;BME280;30240;47.418;0.700;2023-05-09T10:35:01;100163.61083984375;;;14.51;92.75
44531;BME280;30240;47.418;0.700;2023-05-09T10:37:24;100171.77124023438;;;14.32;92.7
44531;BME280;30240;47.418;0.700;2023-05-09T10:39:49;100162.43896484375;;;14.28;92.97
44531;BME280;30240;47.418;0.700;2023-05-09T10:42:14;100162.43896484375;;;14.28;92.97
44531;BME280;30240;47.418;0.700;2023-05-09T10:44:39;100170.4345703125;;;14.47;93.04
44531;BME280;30240;47.418;0.700;2023-05-09T10:47:04;100175.927734375;;;14.42;92.76
44531;BME280;30240;47.418;0.700;2023-05-09T10:49:29;100167.37670898438;;;14.67;92.48
44531;BME280;30240;47.418;0.700;2023-05-09T10:51:54;100157.36694335938;;;14.85;92.18
44531;BME280;30240;47.418;0.700;2023-05-09T10:54:25;100157.36694335938;;;14.85;92.18
44531;BME280;30240;47.418;0.700;2023-05-09T10:56:43;100161.279296875;;;14.92;92.19
44531;BME280;30240;47.418;0.700;2023-05-09T10:59:34;100161.2548828125;;;15.23;91.88
44531;BME280;30240;47.418;0.700;2023-05-09T11:01:35;100148.828125;;;15.19;91.58
44531;BME280;30240;47.418;0.700;2023-05-09T11:04:00;100148.88916015625;;;15.69;91.36
44531;BME280;30240;47.418;0.700;2023-05-09T11:06:43;100148.88916015625;;;15.69;91.36
44531;BME280;30240;47.418;0.700;2023-05-09T11:08:48;100137.40844726562;;;15.44;90.99